sensor_id;sensor_type;location;lat;lon;timestamp;temperature;humidity
21473;DHT22;10898;48.072;11.682;2023-09-30T00:00:20;17.50;69.90
21473;DHT22;10898;48.072;11.682;2023-09-30T00:02:22;17.50;70.00
21473;DHT22;10898;48.072;11.682;2023-09-30T00:04:24;17.50;70.20
21473;DHT22;10898;48.072;11.682;2023-09-30T00:06:26;17.50;70.30
21473;DHT22;10898;48.072;11.682;2023-09-30T00:08:28;17.50;70.40
21473;DHT22;10898;48.072;11.682;2023-09-30T00:10:30;17.40;70.70
21473;DHT22;10898;48.072;11.682;2023-09-30T00:12:32;17.40;70.70
21473;DHT22;10898;48.072;11.682;2023-09-30T00:14:34;17.40;70.90
21473;DHT22;10898;48.072;11.682;2023-09-30T00:16:35;17.40;71.40
21473;DHT22;10898;48.072;11.682;2023-09-30T00:18:38;17.30;71.60
21473;DHT22;10898;48.072;11.682;2023-09-30T00:20:40;17.20;71.50
21473;DHT22;10898;48.072;11.682;2023-09-30T00:22:42;17.20;71.60
21473;DHT22;10898;48.072;11.682;2023-09-30T00:24:44;17.20;71.50
21473;DHT22;10898;48.072;11.682;2023-09-30T00:26:46;17.20;71.60
21473;DHT22;10898;48.072;11.682;2023-09-30T00:28:47;17.20;72.20
21473;DHT22;10898;48.072;11.682;2023-09-30T00:30:49;17.20;72.20
21473;DHT22;10898;48.072;11.682;2023-09-30T00:32:52;17.20;72.80
21473;DHT22;10898;48.072;11.682;2023-09-30T00:34:53;17.20;73.10
21473;DHT22;10898;48.072;11.682;2023-09-30T00:36:56;17.20;73.30
21473;DHT22;10898;48.072;11.682;2023-09-30T00:38:58;17.10;73.40
21473;DHT22;10898;48.072;11.682;2023-09-30T00:41:00;17.10;73.20
21473;DHT22;10898;48.072;11.682;2023-09-30T00:43:02;17.10;73.90
21473;DHT22;10898;48.072;11.682;2023-09-30T00:45:05;17.10;73.80
21473;DHT22;10898;48.072;11.682;2023-09-30T00:47:07;17.10;74.00
21473;DHT22;10898;48.072;11.682;2023-09-30T00:49:10;17.10;74.40
21473;DHT22;10898;48.072;11.682;2023-09-30T00:51:15;17.10;74.30
21473;DHT22;10898;48.072;11.682;2023-09-30T00:53:17;17.10;74.30
21473;DHT22;10898;48.072;11.682;2023-09-30T00:55:19;17.00;74.70
21473;DHT22;10898;48.072;11.682;2023-09-30T00:57:21;17.00;74.20
21473;DHT22;10898;48.072;11.682;2023-09-30T00:59:24;17.00;74.00
21473;DHT22;10898;48.072;11.682;2023-09-30T01:01:28;17.00;74.20
21473;DHT22;10898;48.072;11.682;2023-09-30T01:03:30;17.00;74.30
21473;DHT22;10898;48.072;11.682;2023-09-30T01:05:33;17.00;74.30
21473;DHT22;10898;48.072;11.682;2023-09-30T01:07:35;17.00;74.50
21473;DHT22;10898;48.072;11.682;2023-09-30T01:09:37;17.00;74.50
21473;DHT22;10898;48.072;11.682;2023-09-30T01:11:39;17.00;74.40
21473;DHT22;10898;48.072;11.682;2023-09-30T01:13:42;17.00;75.00
21473;DHT22;10898;48.072;11.682;2023-09-30T01:15:46;17.00;75.00
21473;DHT22;10898;48.072;11.682;2023-09-30T01:17:49;17.00;75.00
21473;DHT22;10898;48.072;11.682;2023-09-30T01:19:51;17.00;75.20
21473;DHT22;10898;48.072;11.682;2023-09-30T01:21:54;17.00;75.20
21473;DHT22;10898;48.072;11.682;2023-09-30T01:24:00;17.00;75.30
21473;DHT22;10898;48.072;11.682;2023-09-30T01:26:03;17.00;75.40
21473;DHT22;10898;48.072;11.682;2023-09-30T01:28:08;17.00;74.80
21473;DHT22;10898;48.072;11.682;2023-09-30T01:30:10;17.00;75.50
21473;DHT22;10898;48.072;11.682;2023-09-30T01:32:13;17.00;75.70
21473;DHT22;10898;48.072;11.682;2023-09-30T01:34:15;17.00;75.70
21473;DHT22;10898;48.072;11.682;2023-09-30T01:36:17;17.00;76.00
21473;DHT22;10898;48.072;11.682;2023-09-30T01:38:19;17.00;76.10
21473;DHT22;10898;48.072;11.682;2023-09-30T01:40:21;16.90;76.40
21473;DHT22;10898;48.072;11.682;2023-09-30T01:42:23;16.90;76.30
21473;DHT22;10898;48.072;11.682;2023-09-30T01:44:25;16.90;76.30
21473;DHT22;10898;48.072;11.682;2023-09-30T01:46:27;16.90;76.70
21473;DHT22;10898;48.072;11.682;2023-09-30T01:48:29;16.90;76.50
21473;DHT22;10898;48.072;11.682;2023-09-30T01:50:31;16.80;76.20
21473;DHT22;10898;48.072;11.682;2023-09-30T01:52:33;16.90;76.00
21473;DHT22;10898;48.072;11.682;2023-09-30T01:54:35;16.90;76.20
21473;DHT22;10898;48.072;11.682;2023-09-30T01:56:37;16.80;76.10
21473;DHT22;10898;48.072;11.682;2023-09-30T01:58:39;16.80;75.50
21473;DHT22;10898;48.072;11.682;2023-09-30T02:00:41;16.80;75.50
21473;DHT22;10898;48.072;11.682;2023-09-30T02:02:42;16.80;75.70
21473;DHT22;10898;48.072;11.682;2023-09-30T02:04:46;16.80;75.70
21473;DHT22;10898;48.072;11.682;2023-09-30T02:06:47;16.80;75.60
21473;DHT22;10898;48.072;11.682;2023-09-30T02:08:49;16.80;76.20
21473;DHT22;10898;48.072;11.682;2023-09-30T02:10:51;16.80;76.50
21473;DHT22;10898;48.072;11.682;2023-09-30T02:12:53;16.80;76.70
21473;DHT22;10898;48.072;11.682;2023-09-30T02:14:55;16.80;76.70
21473;DHT22;10898;48.072;11.682;2023-09-30T02:16:58;16.80;76.80
21473;DHT22;10898;48.072;11.682;2023-09-30T02:18:59;16.80;76.80
21473;DHT22;10898;48.072;11.682;2023-09-30T02:21:01;16.80;77.10
21473;DHT22;10898;48.072;11.682;2023-09-30T02:23:03;16.80;77.20
21473;DHT22;10898;48.072;11.682;2023-09-30T02:25:07;16.80;77.20
21473;DHT22;10898;48.072;11.682;2023-09-30T02:27:09;16.80;77.30
21473;DHT22;10898;48.072;11.682;2023-09-30T02:29:11;16.70;77.00
21473;DHT22;10898;48.072;11.682;2023-09-30T02:31:13;16.70;76.50
21473;DHT22;10898;48.072;11.682;2023-09-30T02:33:15;16.70;76.40
21473;DHT22;10898;48.072;11.682;2023-09-30T02:35:17;16.70;76.60
21473;DHT22;10898;48.072;11.682;2023-09-30T02:37:19;16.70;76.90
21473;DHT22;10898;48.072;11.682;2023-09-30T02:39:21;16.70;77.00
21473;DHT22;10898;48.072;11.682;2023-09-30T02:41:23;16.70;76.70
21473;DHT22;10898;48.072;11.682;2023-09-30T02:43:25;16.70;76.80
21473;DHT22;10898;48.072;11.682;2023-09-30T02:45:28;16.70;76.60
21473;DHT22;10898;48.072;11.682;2023-09-30T02:47:29;16.70;76.50
21473;DHT22;10898;48.072;11.682;2023-09-30T02:49:33;16.70;76.60
21473;DHT22;10898;48.072;11.682;2023-09-30T02:51:35;16.60;77.20
21473;DHT22;10898;48.072;11.682;2023-09-30T02:53:36;16.60;76.70
21473;DHT22;10898;48.072;11.682;2023-09-30T02:55:39;16.60;76.60
21473;DHT22;10898;48.072;11.682;2023-09-30T02:57:41;16.60;76.50
21473;DHT22;10898;48.072;11.682;2023-09-30T02:59:44;16.60;76.80
21473;DHT22;10898;48.072;11.682;2023-09-30T03:01:46;16.60;76.90
21473;DHT22;10898;48.072;11.682;2023-09-30T03:03:48;16.60;77.50
21473;DHT22;10898;48.072;11.682;2023-09-30T03:05:50;16.60;77.60
21473;DHT22;10898;48.072;11.682;2023-09-30T03:07:52;16.60;77.20
21473;DHT22;10898;48.072;11.682;2023-09-30T03:09:54;16.70;77.10
21473;DHT22;10898;48.072;11.682;2023-09-30T03:11:56;16.70;77.10
21473;DHT22;10898;48.072;11.682;2023-09-30T03:13:58;16.70;76.90
21473;DHT22;10898;48.072;11.682;2023-09-30T03:16:00;16.70;76.80
21473;DHT22;10898;48.072;11.682;2023-09-30T03:18:03;16.70;76.80
21473;DHT22;10898;48.072;11.682;2023-09-30T03:20:05;16.60;76.70
21473;DHT22;10898;48.072;11.682;2023-09-30T03:22:11;16.60;77.20
21473;DHT22;10898;48.072;11.682;2023-09-30T03:24:13;16.60;77.10
21473;DHT22;10898;48.072;11.682;2023-09-30T03:26:15;16.60;77.50
21473;DHT22;10898;48.072;11.682;2023-09-30T03:28:17;16.60;77.00
21473;DHT22;10898;48.072;11.682;2023-09-30T03:30:19;16.60;77.00
21473;DHT22;10898;48.072;11.682;2023-09-30T03:32:22;16.60;77.10
21473;DHT22;10898;48.072;11.682;2023-09-30T03:34:24;16.60;76.70
21473;DHT22;10898;48.072;11.682;2023-09-30T03:36:25;16.60;76.60
21473;DHT22;10898;48.072;11.682;2023-09-30T03:38:27;16.50;76.70
21473;DHT22;10898;48.072;11.682;2023-09-30T03:40:30;16.50;76.70
21473;DHT22;10898;48.072;11.682;2023-09-30T03:42:35;16.50;76.70
21473;DHT22;10898;48.072;11.682;2023-09-30T03:44:38;16.50;76.80
21473;DHT22;10898;48.072;11.682;2023-09-30T03:46:40;16.50;76.80
21473;DHT22;10898;48.072;11.682;2023-09-30T03:48:42;16.40;77.00
21473;DHT22;10898;48.072;11.682;2023-09-30T03:50:46;16.40;77.00
21473;DHT22;10898;48.072;11.682;2023-09-30T03:52:48;16.40;77.10
21473;DHT22;10898;48.072;11.682;2023-09-30T03:54:51;16.40;77.10
21473;DHT22;10898;48.072;11.682;2023-09-30T03:56:53;16.40;77.10
21473;DHT22;10898;48.072;11.682;2023-09-30T03:58:54;16.40;77.10
21473;DHT22;10898;48.072;11.682;2023-09-30T04:00:56;16.40;77.20
21473;DHT22;10898;48.072;11.682;2023-09-30T04:02:58;16.40;77.30
21473;DHT22;10898;48.072;11.682;2023-09-30T04:05:00;16.40;77.10
21473;DHT22;10898;48.072;11.682;2023-09-30T04:07:06;16.40;77.20
21473;DHT22;10898;48.072;11.682;2023-09-30T04:09:11;16.40;77.20
21473;DHT22;10898;48.072;11.682;2023-09-30T04:11:13;16.40;77.20
21473;DHT22;10898;48.072;11.682;2023-09-30T04:13:20;16.40;77.30
21473;DHT22;10898;48.072;11.682;2023-09-30T04:15:23;16.40;77.30
21473;DHT22;10898;48.072;11.682;2023-09-30T04:17:24;16.40;77.40
21473;DHT22;10898;48.072;11.682;2023-09-30T04:19:28;16.40;77.50
21473;DHT22;10898;48.072;11.682;2023-09-30T04:21:32;16.40;77.40
21473;DHT22;10898;48.072;11.682;2023-09-30T04:23:36;16.40;77.40
21473;DHT22;10898;48.072;11.682;2023-09-30T04:25:39;16.40;77.50
21473;DHT22;10898;48.072;11.682;2023-09-30T04:27:44;16.30;77.70
21473;DHT22;10898;48.072;11.682;2023-09-30T04:29:50;16.30;77.80
21473;DHT22;10898;48.072;11.682;2023-09-30T04:31:52;16.30;78.10
21473;DHT22;10898;48.072;11.682;2023-09-30T04:33:54;16.30;78.50
21473;DHT22;10898;48.072;11.682;2023-09-30T04:35:56;16.30;78.60
21473;DHT22;10898;48.072;11.682;2023-09-30T04:37:58;16.30;78.10
21473;DHT22;10898;48.072;11.682;2023-09-30T04:40:09;16.20;78.00
21473;DHT22;10898;48.072;11.682;2023-09-30T04:42:17;16.20;78.00
21473;DHT22;10898;48.072;11.682;2023-09-30T04:44:19;16.20;78.20
21473;DHT22;10898;48.072;11.682;2023-09-30T04:46:21;16.20;78.40
21473;DHT22;10898;48.072;11.682;2023-09-30T04:48:25;16.20;78.50
21473;DHT22;10898;48.072;11.682;2023-09-30T04:50:28;16.20;78.70
21473;DHT22;10898;48.072;11.682;2023-09-30T04:52:32;16.20;79.10
21473;DHT22;10898;48.072;11.682;2023-09-30T04:54:33;16.20;79.10
21473;DHT22;10898;48.072;11.682;2023-09-30T04:56:37;16.20;78.80
21473;DHT22;10898;48.072;11.682;2023-09-30T04:58:40;16.20;78.70
21473;DHT22;10898;48.072;11.682;2023-09-30T05:00:42;16.20;78.90
21473;DHT22;10898;48.072;11.682;2023-09-30T05:02:45;16.10;79.20
21473;DHT22;10898;48.072;11.682;2023-09-30T05:04:47;16.10;78.80
21473;DHT22;10898;48.072;11.682;2023-09-30T05:06:49;16.10;78.70
21473;DHT22;10898;48.072;11.682;2023-09-30T05:08:51;16.10;78.90
21473;DHT22;10898;48.072;11.682;2023-09-30T05:10:54;16.00;79.10
21473;DHT22;10898;48.072;11.682;2023-09-30T05:12:57;16.00;79.50
21473;DHT22;10898;48.072;11.682;2023-09-30T05:14:59;16.00;79.70
21473;DHT22;10898;48.072;11.682;2023-09-30T05:17:01;16.00;79.40
21473;DHT22;10898;48.072;11.682;2023-09-30T05:19:03;16.00;79.40
21473;DHT22;10898;48.072;11.682;2023-09-30T05:21:06;16.00;79.70
21473;DHT22;10898;48.072;11.682;2023-09-30T05:23:08;16.00;79.70
21473;DHT22;10898;48.072;11.682;2023-09-30T05:25:10;16.00;79.40
21473;DHT22;10898;48.072;11.682;2023-09-30T05:27:12;16.00;79.50
21473;DHT22;10898;48.072;11.682;2023-09-30T05:29:14;16.00;79.60
21473;DHT22;10898;48.072;11.682;2023-09-30T05:31:16;16.00;79.60
21473;DHT22;10898;48.072;11.682;2023-09-30T05:33:18;16.00;79.60
21473;DHT22;10898;48.072;11.682;2023-09-30T05:35:20;16.00;79.80
21473;DHT22;10898;48.072;11.682;2023-09-30T05:37:25;16.00;80.00
21473;DHT22;10898;48.072;11.682;2023-09-30T05:39:27;16.00;79.70
21473;DHT22;10898;48.072;11.682;2023-09-30T05:41:33;16.00;79.70
21473;DHT22;10898;48.072;11.682;2023-09-30T05:43:35;16.00;80.10
21473;DHT22;10898;48.072;11.682;2023-09-30T05:45:37;16.00;80.30
21473;DHT22;10898;48.072;11.682;2023-09-30T05:47:39;16.00;80.50
21473;DHT22;10898;48.072;11.682;2023-09-30T05:49:41;16.00;80.40
21473;DHT22;10898;48.072;11.682;2023-09-30T05:51:43;16.00;80.50
21473;DHT22;10898;48.072;11.682;2023-09-30T05:53:45;16.00;80.50
21473;DHT22;10898;48.072;11.682;2023-09-30T05:55:49;16.00;80.40
21473;DHT22;10898;48.072;11.682;2023-09-30T05:57:52;16.00;80.30
21473;DHT22;10898;48.072;11.682;2023-09-30T05:59:54;16.00;80.20
21473;DHT22;10898;48.072;11.682;2023-09-30T06:01:56;16.00;80.00
21473;DHT22;10898;48.072;11.682;2023-09-30T06:03:59;16.00;80.00
21473;DHT22;10898;48.072;11.682;2023-09-30T06:06:01;16.00;80.00
21473;DHT22;10898;48.072;11.682;2023-09-30T06:08:04;16.00;80.20
21473;DHT22;10898;48.072;11.682;2023-09-30T06:10:06;16.00;80.10
21473;DHT22;10898;48.072;11.682;2023-09-30T06:12:09;16.00;80.30
21473;DHT22;10898;48.072;11.682;2023-09-30T06:14:13;16.00;80.30
21473;DHT22;10898;48.072;11.682;2023-09-30T06:16:16;16.00;80.40
21473;DHT22;10898;48.072;11.682;2023-09-30T06:18:19;16.00;80.50
21473;DHT22;10898;48.072;11.682;2023-09-30T06:20:21;16.00;80.70
21473;DHT22;10898;48.072;11.682;2023-09-30T06:22:29;16.00;80.40
21473;DHT22;10898;48.072;11.682;2023-09-30T06:24:31;16.00;80.60
21473;DHT22;10898;48.072;11.682;2023-09-30T06:26:32;16.00;80.60
21473;DHT22;10898;48.072;11.682;2023-09-30T06:28:34;16.00;80.60
21473;DHT22;10898;48.072;11.682;2023-09-30T06:30:43;16.00;80.70
21473;DHT22;10898;48.072;11.682;2023-09-30T06:32:47;16.10;80.90
21473;DHT22;10898;48.072;11.682;2023-09-30T06:34:49;16.10;80.50
21473;DHT22;10898;48.072;11.682;2023-09-30T06:36:51;16.10;80.30
21473;DHT22;10898;48.072;11.682;2023-09-30T06:38:54;16.00;80.40
21473;DHT22;10898;48.072;11.682;2023-09-30T06:40:56;16.00;80.50
21473;DHT22;10898;48.072;11.682;2023-09-30T06:42:58;16.00;80.90
21473;DHT22;10898;48.072;11.682;2023-09-30T06:45:03;15.90;81.30
21473;DHT22;10898;48.072;11.682;2023-09-30T06:47:08;16.00;81.50
21473;DHT22;10898;48.072;11.682;2023-09-30T06:49:13;16.00;81.40
21473;DHT22;10898;48.072;11.682;2023-09-30T06:51:16;16.00;81.20
21473;DHT22;10898;48.072;11.682;2023-09-30T06:53:19;16.00;81.10
21473;DHT22;10898;48.072;11.682;2023-09-30T06:55:23;16.00;81.20
21473;DHT22;10898;48.072;11.682;2023-09-30T06:57:26;16.00;80.70
21473;DHT22;10898;48.072;11.682;2023-09-30T06:59:28;16.00;80.50
21473;DHT22;10898;48.072;11.682;2023-09-30T07:01:30;16.00;80.60
21473;DHT22;10898;48.072;11.682;2023-09-30T07:03:32;16.00;80.80
21473;DHT22;10898;48.072;11.682;2023-09-30T07:05:36;16.00;80.50
21473;DHT22;10898;48.072;11.682;2023-09-30T07:07:39;16.00;80.10
21473;DHT22;10898;48.072;11.682;2023-09-30T07:09:43;16.00;80.20
21473;DHT22;10898;48.072;11.682;2023-09-30T07:11:45;16.00;79.90
21473;DHT22;10898;48.072;11.682;2023-09-30T07:13:47;16.00;80.30
21473;DHT22;10898;48.072;11.682;2023-09-30T07:15:49;16.00;80.50
21473;DHT22;10898;48.072;11.682;2023-09-30T07:17:52;16.10;80.10
21473;DHT22;10898;48.072;11.682;2023-09-30T07:19:54;16.10;79.80
21473;DHT22;10898;48.072;11.682;2023-09-30T07:21:56;16.10;79.80
21473;DHT22;10898;48.072;11.682;2023-09-30T07:24:06;16.10;79.40
21473;DHT22;10898;48.072;11.682;2023-09-30T07:26:08;16.10;79.90
21473;DHT22;10898;48.072;11.682;2023-09-30T07:28:10;16.10;80.20
21473;DHT22;10898;48.072;11.682;2023-09-30T07:30:14;16.20;80.20
21473;DHT22;10898;48.072;11.682;2023-09-30T07:32:19;16.30;80.20
21473;DHT22;10898;48.072;11.682;2023-09-30T07:34:24;16.40;79.10
21473;DHT22;10898;48.072;11.682;2023-09-30T07:36:26;16.40;79.00
21473;DHT22;10898;48.072;11.682;2023-09-30T07:38:28;16.40;79.10
21473;DHT22;10898;48.072;11.682;2023-09-30T07:40:30;16.40;79.30
21473;DHT22;10898;48.072;11.682;2023-09-30T07:42:31;16.40;78.60
21473;DHT22;10898;48.072;11.682;2023-09-30T07:44:35;16.40;78.50
21473;DHT22;10898;48.072;11.682;2023-09-30T07:46:40;16.40;78.40
21473;DHT22;10898;48.072;11.682;2023-09-30T07:48:42;16.50;78.40
21473;DHT22;10898;48.072;11.682;2023-09-30T07:50:44;16.40;78.40
21473;DHT22;10898;48.072;11.682;2023-09-30T07:52:46;16.40;78.40
21473;DHT22;10898;48.072;11.682;2023-09-30T07:54:48;16.40;78.00
21473;DHT22;10898;48.072;11.682;2023-09-30T07:56:50;16.40;78.00
21473;DHT22;10898;48.072;11.682;2023-09-30T07:58:51;16.40;78.20
21473;DHT22;10898;48.072;11.682;2023-09-30T08:00:53;16.40;78.00
21473;DHT22;10898;48.072;11.682;2023-09-30T08:02:56;16.40;78.20
21473;DHT22;10898;48.072;11.682;2023-09-30T08:04:58;16.50;78.20
21473;DHT22;10898;48.072;11.682;2023-09-30T08:06:59;16.50;77.50
21473;DHT22;10898;48.072;11.682;2023-09-30T08:09:01;16.40;78.20
21473;DHT22;10898;48.072;11.682;2023-09-30T08:11:05;16.40;78.40
21473;DHT22;10898;48.072;11.682;2023-09-30T08:13:07;16.40;78.50
21473;DHT22;10898;48.072;11.682;2023-09-30T08:15:10;16.50;78.20
21473;DHT22;10898;48.072;11.682;2023-09-30T08:17:15;16.50;78.20
21473;DHT22;10898;48.072;11.682;2023-09-30T08:19:17;16.50;78.20
21473;DHT22;10898;48.072;11.682;2023-09-30T08:21:19;16.50;78.50
21473;DHT22;10898;48.072;11.682;2023-09-30T08:23:21;16.50;78.70
21473;DHT22;10898;48.072;11.682;2023-09-30T08:25:23;16.60;78.10
21473;DHT22;10898;48.072;11.682;2023-09-30T08:27:26;16.60;77.60
21473;DHT22;10898;48.072;11.682;2023-09-30T08:29:28;16.60;77.90
21473;DHT22;10898;48.072;11.682;2023-09-30T08:31:30;16.50;77.60
21473;DHT22;10898;48.072;11.682;2023-09-30T08:33:32;16.60;77.40
21473;DHT22;10898;48.072;11.682;2023-09-30T08:35:37;16.60;78.30
21473;DHT22;10898;48.072;11.682;2023-09-30T08:37:39;16.70;78.10
21473;DHT22;10898;48.072;11.682;2023-09-30T08:39:41;16.70;77.80
21473;DHT22;10898;48.072;11.682;2023-09-30T08:41:44;16.70;77.50
21473;DHT22;10898;48.072;11.682;2023-09-30T08:43:47;16.80;77.40
21473;DHT22;10898;48.072;11.682;2023-09-30T08:45:50;16.80;77.00
21473;DHT22;10898;48.072;11.682;2023-09-30T08:47:55;16.80;77.30
21473;DHT22;10898;48.072;11.682;2023-09-30T08:49:59;16.90;76.80
21473;DHT22;10898;48.072;11.682;2023-09-30T08:52:09;16.90;77.10
21473;DHT22;10898;48.072;11.682;2023-09-30T08:54:12;16.90;76.80
21473;DHT22;10898;48.072;11.682;2023-09-30T08:56:14;17.00;76.20
21473;DHT22;10898;48.072;11.682;2023-09-30T08:58:17;17.00;76.30
21473;DHT22;10898;48.072;11.682;2023-09-30T09:00:19;17.00;76.30
21473;DHT22;10898;48.072;11.682;2023-09-30T09:02:22;17.00;76.00
21473;DHT22;10898;48.072;11.682;2023-09-30T09:04:24;17.10;76.20
21473;DHT22;10898;48.072;11.682;2023-09-30T09:06:26;17.20;75.50
21473;DHT22;10898;48.072;11.682;2023-09-30T09:08:28;17.20;74.70
21473;DHT22;10898;48.072;11.682;2023-09-30T09:10:30;17.20;74.70
21473;DHT22;10898;48.072;11.682;2023-09-30T09:12:34;17.20;75.00
21473;DHT22;10898;48.072;11.682;2023-09-30T09:14:40;17.20;75.40
21473;DHT22;10898;48.072;11.682;2023-09-30T09:16:53;17.40;74.10
21473;DHT22;10898;48.072;11.682;2023-09-30T09:18:55;17.40;74.20
21473;DHT22;10898;48.072;11.682;2023-09-30T09:21:12;17.50;74.70
21473;DHT22;10898;48.072;11.682;2023-09-30T09:23:14;17.50;74.70
21473;DHT22;10898;48.072;11.682;2023-09-30T09:25:16;17.50;74.00
21473;DHT22;10898;48.072;11.682;2023-09-30T09:27:18;17.60;72.80
21473;DHT22;10898;48.072;11.682;2023-09-30T09:29:25;17.60;72.30
21473;DHT22;10898;48.072;11.682;2023-09-30T09:31:29;17.60;72.90
21473;DHT22;10898;48.072;11.682;2023-09-30T09:33:35;17.70;72.00
21473;DHT22;10898;48.072;11.682;2023-09-30T09:35:38;17.80;72.10
21473;DHT22;10898;48.072;11.682;2023-09-30T09:37:39;17.80;71.30
21473;DHT22;10898;48.072;11.682;2023-09-30T09:39:54;17.80;71.00
21473;DHT22;10898;48.072;11.682;2023-09-30T09:41:58;17.90;69.10
21473;DHT22;10898;48.072;11.682;2023-09-30T09:44:05;17.80;69.40
21473;DHT22;10898;48.072;11.682;2023-09-30T09:46:08;17.80;69.60
21473;DHT22;10898;48.072;11.682;2023-09-30T09:48:10;17.80;69.60
21473;DHT22;10898;48.072;11.682;2023-09-30T09:50:13;17.80;70.10
21473;DHT22;10898;48.072;11.682;2023-09-30T09:52:16;17.80;69.60
21473;DHT22;10898;48.072;11.682;2023-09-30T09:54:19;17.90;69.60
21473;DHT22;10898;48.072;11.682;2023-09-30T09:56:23;17.90;69.90
21473;DHT22;10898;48.072;11.682;2023-09-30T09:58:27;18.00;68.90
21473;DHT22;10898;48.072;11.682;2023-09-30T10:00:29;18.00;68.30
21473;DHT22;10898;48.072;11.682;2023-09-30T10:02:33;18.00;68.60
21473;DHT22;10898;48.072;11.682;2023-09-30T10:04:35;18.00;68.70
21473;DHT22;10898;48.072;11.682;2023-09-30T10:06:37;18.00;69.00
21473;DHT22;10898;48.072;11.682;2023-09-30T10:08:44;18.00;68.40
21473;DHT22;10898;48.072;11.682;2023-09-30T10:10:47;18.00;69.50
21473;DHT22;10898;48.072;11.682;2023-09-30T10:12:49;18.10;69.00
21473;DHT22;10898;48.072;11.682;2023-09-30T10:14:52;18.10;69.40
21473;DHT22;10898;48.072;11.682;2023-09-30T10:16:54;18.20;67.30
21473;DHT22;10898;48.072;11.682;2023-09-30T10:19:15;18.30;66.00
21473;DHT22;10898;48.072;11.682;2023-09-30T10:21:17;18.30;66.70
21473;DHT22;10898;48.072;11.682;2023-09-30T10:23:26;18.30;65.60
21473;DHT22;10898;48.072;11.682;2023-09-30T10:25:35;18.30;64.80
21473;DHT22;10898;48.072;11.682;2023-09-30T10:27:38;18.30;63.80
21473;DHT22;10898;48.072;11.682;2023-09-30T10:29:41;18.30;64.00
21473;DHT22;10898;48.072;11.682;2023-09-30T10:31:50;18.30;65.30
21473;DHT22;10898;48.072;11.682;2023-09-30T10:36:04;18.40;63.60
21473;DHT22;10898;48.072;11.682;2023-09-30T10:40:27;18.50;63.70
21473;DHT22;10898;48.072;11.682;2023-09-30T10:42:46;18.50;64.70
21473;DHT22;10898;48.072;11.682;2023-09-30T10:44:50;18.70;64.30
21473;DHT22;10898;48.072;11.682;2023-09-30T10:46:53;18.70;64.20
21473;DHT22;10898;48.072;11.682;2023-09-30T10:48:55;18.80;65.00
21473;DHT22;10898;48.072;11.682;2023-09-30T10:50:59;18.90;64.90
21473;DHT22;10898;48.072;11.682;2023-09-30T10:53:05;19.00;63.30
21473;DHT22;10898;48.072;11.682;2023-09-30T10:55:09;19.00;64.10
21473;DHT22;10898;48.072;11.682;2023-09-30T10:57:11;19.10;63.70
21473;DHT22;10898;48.072;11.682;2023-09-30T10:59:19;19.10;63.50
21473;DHT22;10898;48.072;11.682;2023-09-30T11:01:22;19.10;63.40
21473;DHT22;10898;48.072;11.682;2023-09-30T11:03:24;19.20;63.30
21473;DHT22;10898;48.072;11.682;2023-09-30T11:05:27;19.30;63.70
21473;DHT22;10898;48.072;11.682;2023-09-30T11:07:50;19.30;62.60
21473;DHT22;10898;48.072;11.682;2023-09-30T11:09:53;19.30;62.00
21473;DHT22;10898;48.072;11.682;2023-09-30T11:11:55;19.40;61.70
21473;DHT22;10898;48.072;11.682;2023-09-30T11:13:57;19.50;61.50
21473;DHT22;10898;48.072;11.682;2023-09-30T11:16:01;19.50;60.40
21473;DHT22;10898;48.072;11.682;2023-09-30T11:18:17;19.50;60.50
21473;DHT22;10898;48.072;11.682;2023-09-30T11:20:19;19.50;60.30
21473;DHT22;10898;48.072;11.682;2023-09-30T11:22:22;19.50;60.70
21473;DHT22;10898;48.072;11.682;2023-09-30T11:24:24;19.40;61.10
21473;DHT22;10898;48.072;11.682;2023-09-30T11:26:30;19.50;61.30
21473;DHT22;10898;48.072;11.682;2023-09-30T11:28:40;19.50;61.40
21473;DHT22;10898;48.072;11.682;2023-09-30T11:31:01;19.60;62.60
21473;DHT22;10898;48.072;11.682;2023-09-30T11:33:08;19.70;58.60
21473;DHT22;10898;48.072;11.682;2023-09-30T11:35:22;19.70;57.40
21473;DHT22;10898;48.072;11.682;2023-09-30T11:37:30;19.70;56.30
21473;DHT22;10898;48.072;11.682;2023-09-30T11:39:32;19.70;56.60
21473;DHT22;10898;48.072;11.682;2023-09-30T11:41:39;19.70;56.80
21473;DHT22;10898;48.072;11.682;2023-09-30T11:44:00;19.70;56.60
21473;DHT22;10898;48.072;11.682;2023-09-30T11:46:06;19.80;57.70
21473;DHT22;10898;48.072;11.682;2023-09-30T11:48:18;19.80;58.40
21473;DHT22;10898;48.072;11.682;2023-09-30T11:50:20;19.90;60.30
21473;DHT22;10898;48.072;11.682;2023-09-30T11:52:27;20.00;59.20
21473;DHT22;10898;48.072;11.682;2023-09-30T11:56:33;20.10;58.20
21473;DHT22;10898;48.072;11.682;2023-09-30T11:58:35;20.10;56.20
21473;DHT22;10898;48.072;11.682;2023-09-30T12:00:41;20.00;55.60
21473;DHT22;10898;48.072;11.682;2023-09-30T12:02:43;20.00;55.90
21473;DHT22;10898;48.072;11.682;2023-09-30T12:04:46;19.90;57.00
21473;DHT22;10898;48.072;11.682;2023-09-30T12:06:51;19.90;56.70
21473;DHT22;10898;48.072;11.682;2023-09-30T12:08:52;19.90;57.70
21473;DHT22;10898;48.072;11.682;2023-09-30T12:10:55;19.90;58.70
21473;DHT22;10898;48.072;11.682;2023-09-30T12:12:57;19.90;59.00
21473;DHT22;10898;48.072;11.682;2023-09-30T12:14:59;19.90;58.80
21473;DHT22;10898;48.072;11.682;2023-09-30T12:17:01;19.90;58.90
21473;DHT22;10898;48.072;11.682;2023-09-30T12:19:03;19.90;58.30
21473;DHT22;10898;48.072;11.682;2023-09-30T12:21:05;19.90;58.90
21473;DHT22;10898;48.072;11.682;2023-09-30T12:23:09;19.90;59.70
21473;DHT22;10898;48.072;11.682;2023-09-30T12:25:11;20.00;60.70
21473;DHT22;10898;48.072;11.682;2023-09-30T12:27:13;20.00;60.40
21473;DHT22;10898;48.072;11.682;2023-09-30T12:31:19;20.10;59.40
21473;DHT22;10898;48.072;11.682;2023-09-30T12:33:22;20.20;59.70
21473;DHT22;10898;48.072;11.682;2023-09-30T12:35:25;20.30;59.60
21473;DHT22;10898;48.072;11.682;2023-09-30T12:37:26;20.30;57.40
21473;DHT22;10898;48.072;11.682;2023-09-30T12:39:28;20.40;55.70
21473;DHT22;10898;48.072;11.682;2023-09-30T12:41:35;20.40;55.90
21473;DHT22;10898;48.072;11.682;2023-09-30T12:43:37;20.50;56.70
21473;DHT22;10898;48.072;11.682;2023-09-30T12:45:39;20.60;57.50
21473;DHT22;10898;48.072;11.682;2023-09-30T12:47:41;20.70;56.20
21473;DHT22;10898;48.072;11.682;2023-09-30T12:49:43;20.70;54.80
21473;DHT22;10898;48.072;11.682;2023-09-30T12:51:44;20.80;55.00
21473;DHT22;10898;48.072;11.682;2023-09-30T12:53:46;20.90;54.60